createdAt,value
2019-05-30T00:00:45.114Z,1016.13
2019-05-30T00:02:38.024Z,1016.11
2019-05-30T00:03:38.032Z,1016.08
2019-05-30T00:05:30.950Z,1016.09
2019-05-30T00:06:30.959Z,1016.07
2019-05-30T00:08:23.866Z,1016.06
2019-05-30T00:09:23.877Z,1016.05
2019-05-30T00:11:16.789Z,1016.03
2019-05-30T00:12:16.795Z,1016.01
2019-05-30T00:14:09.720Z,1016.01
2019-05-30T00:15:09.778Z,1015.99
2019-05-30T00:17:03.052Z,1015.99
2019-05-30T00:18:02.962Z,1015.99
2019-05-30T00:19:56.687Z,1015.99
2019-05-30T00:20:56.696Z,1015.97
2019-05-30T00:22:48.457Z,1015.98
2019-05-30T00:23:48.465Z,1015.96
2019-05-30T00:25:41.413Z,1015.98
2019-05-30T00:26:41.380Z,1015.96
2019-05-30T00:28:34.289Z,1015.95
2019-05-30T00:29:34.301Z,1015.92
2019-05-30T00:31:27.208Z,1015.95
2019-05-30T00:32:27.212Z,1015.94
2019-05-30T00:34:20.127Z,1015.96
2019-05-30T00:35:20.131Z,1015.93
2019-05-30T00:37:13.039Z,1015.88
2019-05-30T00:38:13.048Z,1015.88
2019-05-30T00:40:06.151Z,1015.90
2019-05-30T00:41:06.224Z,1015.85
2019-05-30T00:42:59.965Z,1015.86
2019-05-30T00:43:59.875Z,1015.86
2019-05-30T00:45:51.797Z,1015.86
2019-05-30T00:46:51.800Z,1015.85
2019-05-30T00:48:44.709Z,1015.89
2019-05-30T00:49:44.719Z,1015.87
2019-05-30T00:51:37.631Z,1015.88
2019-05-30T00:52:37.634Z,1015.89
2019-05-30T00:54:31.028Z,1015.88
2019-05-30T00:55:30.556Z,1015.89
2019-05-30T00:57:23.467Z,1015.88
2019-05-30T00:58:23.481Z,1015.86
2019-05-30T01:00:16.390Z,1015.86
2019-05-30T01:01:16.396Z,1015.83
2019-05-30T01:03:09.384Z,1015.88
2019-05-30T01:04:09.314Z,1015.86
2019-05-30T01:06:02.968Z,1015.89
2019-05-30T01:07:03.562Z,1015.90
2019-05-30T01:08:55.145Z,1015.87
2019-05-30T01:09:55.153Z,1015.89
2019-05-30T01:11:48.066Z,1015.86
2019-05-30T01:12:48.073Z,1015.86
2019-05-30T01:14:40.990Z,1015.84
2019-05-30T01:15:40.990Z,1015.85
2019-05-30T01:17:33.902Z,1015.82
2019-05-30T01:18:33.930Z,1015.84
2019-05-30T01:20:26.830Z,1015.78
2019-05-30T01:21:26.833Z,1015.78
2019-05-30T01:23:19.740Z,1015.73
2019-05-30T01:24:19.756Z,1015.70
2019-05-30T01:26:12.666Z,1015.74
2019-05-30T01:27:12.671Z,1015.73
2019-05-30T01:29:05.618Z,1015.78
2019-05-30T01:30:05.769Z,1015.72
2019-05-30T01:31:59.399Z,1015.78
2019-05-30T01:32:59.641Z,1015.75
2019-05-30T01:34:51.487Z,1015.77
2019-05-30T01:35:51.487Z,1015.75
2019-05-30T01:37:44.397Z,1015.74
2019-05-30T01:38:44.409Z,1015.79
2019-05-30T01:40:37.321Z,1015.74
2019-05-30T01:41:37.324Z,1015.75
2019-05-30T01:43:30.238Z,1015.79
2019-05-30T01:44:30.244Z,1015.75
2019-05-30T01:46:23.167Z,1015.79
2019-05-30T01:47:23.164Z,1015.76
2019-05-30T01:49:16.072Z,1015.77
2019-05-30T01:50:16.079Z,1015.72
2019-05-30T01:52:09.002Z,1015.69
2019-05-30T01:53:09.022Z,1015.66
2019-05-30T01:55:02.780Z,1015.71
2019-05-30T01:56:02.721Z,1015.67
2019-05-30T01:57:54.837Z,1015.66
2019-05-30T01:58:54.843Z,1015.63
2019-05-30T02:00:47.760Z,1015.61
2019-05-30T02:01:47.767Z,1015.63
2019-05-30T02:03:40.673Z,1015.66
2019-05-30T02:04:40.683Z,1015.64
2019-05-30T02:06:33.596Z,1015.61
2019-05-30T02:07:33.603Z,1015.57
2019-05-30T02:09:26.513Z,1015.55
2019-05-30T02:10:26.525Z,1015.60
2019-05-30T02:12:19.435Z,1015.56
2019-05-30T02:13:19.442Z,1015.55
2019-05-30T02:15:12.358Z,1015.58
2019-05-30T02:16:12.364Z,1015.60
2019-05-30T02:18:05.751Z,1015.64
2019-05-30T02:19:05.839Z,1015.58
2019-05-30T02:20:58.211Z,1015.60
2019-05-30T02:21:58.205Z,1015.60
2019-05-30T02:23:51.113Z,1015.60
2019-05-30T02:24:51.122Z,1015.60
2019-05-30T02:26:44.048Z,1015.59
2019-05-30T02:27:44.044Z,1015.59
2019-05-30T02:29:36.957Z,1015.65
2019-05-30T02:30:36.971Z,1015.64
2019-05-30T02:32:29.890Z,1015.62
2019-05-30T02:33:29.888Z,1015.64
2019-05-30T02:35:22.803Z,1015.61
2019-05-30T02:36:22.808Z,1015.58
2019-05-30T02:38:15.724Z,1015.60
2019-05-30T02:39:15.731Z,1015.59
2019-05-30T02:41:10.076Z,1015.60
2019-05-30T02:42:09.703Z,1015.62
2019-05-30T02:44:02.917Z,1015.62
2019-05-30T02:45:03.417Z,1015.66
2019-05-30T02:46:54.496Z,1015.66
2019-05-30T02:47:54.485Z,1015.65
2019-05-30T02:49:47.404Z,1015.70
2019-05-30T02:50:47.405Z,1015.71
2019-05-30T02:52:40.319Z,1015.65
2019-05-30T02:53:40.325Z,1015.64
2019-05-30T02:55:33.248Z,1015.67
2019-05-30T02:56:33.250Z,1015.69
2019-05-30T02:58:26.157Z,1015.70
2019-05-30T02:59:26.171Z,1015.66
2019-05-30T03:01:19.089Z,1015.68
2019-05-30T03:02:19.092Z,1015.68
2019-05-30T03:04:12.890Z,1015.66
2019-05-30T03:05:14.884Z,1015.69
2019-05-30T03:07:07.084Z,1015.68
2019-05-30T03:08:06.699Z,1015.66
2019-05-30T03:09:57.851Z,1015.65
2019-05-30T03:10:57.863Z,1015.63
2019-05-30T03:12:50.790Z,1015.67
2019-05-30T03:13:50.782Z,1015.64
2019-05-30T03:15:43.730Z,1015.67
2019-05-30T03:16:43.704Z,1015.62
2019-05-30T03:18:36.624Z,1015.64
2019-05-30T03:19:36.634Z,1015.63
2019-05-30T03:21:29.557Z,1015.65
2019-05-30T03:22:29.554Z,1015.65
2019-05-30T03:24:22.468Z,1015.66
2019-05-30T03:25:22.478Z,1015.66
2019-05-30T03:27:15.392Z,1015.62
2019-05-30T03:28:15.403Z,1015.63
2019-05-30T03:30:16.824Z,1015.60
2019-05-30T03:31:17.677Z,1015.61
2019-05-30T03:33:12.963Z,1015.63
2019-05-30T03:34:04.501Z,1015.66
2019-05-30T03:35:54.170Z,1015.63
2019-05-30T03:36:54.347Z,1015.62
2019-05-30T03:38:47.086Z,1015.68
2019-05-30T03:39:47.114Z,1015.66
2019-05-30T03:41:40.010Z,1015.68
2019-05-30T03:42:40.020Z,1015.69
2019-05-30T03:44:32.926Z,1015.73
2019-05-30T03:45:32.946Z,1015.70
2019-05-30T03:47:25.863Z,1015.70
2019-05-30T03:48:25.863Z,1015.74
2019-05-30T03:50:18.769Z,1015.75
2019-05-30T03:51:18.777Z,1015.72
2019-05-30T03:53:13.888Z,1015.73
2019-05-30T03:54:13.654Z,1015.76
2019-05-30T03:56:04.634Z,1015.73
2019-05-30T03:57:04.725Z,1015.70
2019-05-30T03:58:57.540Z,1015.71
2019-05-30T03:59:57.554Z,1015.73
2019-05-30T04:01:50.468Z,1015.73
2019-05-30T04:02:57.517Z,1015.73
2019-05-30T04:04:43.386Z,1015.73
2019-05-30T04:05:43.395Z,1015.74
2019-05-30T04:07:36.328Z,1015.76
2019-05-30T04:08:36.334Z,1015.74
2019-05-30T04:10:29.232Z,1015.78
2019-05-30T04:11:29.243Z,1015.78
2019-05-30T04:13:22.175Z,1015.80
2019-05-30T04:14:22.166Z,1015.81
2019-05-30T04:16:15.803Z,1015.80
2019-05-30T04:17:16.023Z,1015.80
2019-05-30T04:19:08.156Z,1015.82
2019-05-30T04:20:09.345Z,1015.83
2019-05-30T04:22:00.931Z,1015.81
2019-05-30T04:23:00.937Z,1015.81
2019-05-30T04:24:53.857Z,1015.79
2019-05-30T04:25:53.867Z,1015.78
2019-05-30T04:27:47.275Z,1015.78
2019-05-30T04:28:47.286Z,1015.77
2019-05-30T04:30:40.202Z,1015.79
2019-05-30T04:31:40.208Z,1015.83
2019-05-30T04:33:33.944Z,1015.85
2019-05-30T04:34:33.135Z,1015.86
2019-05-30T04:36:26.094Z,1015.88
2019-05-30T04:37:26.064Z,1015.84
2019-05-30T04:39:19.226Z,1015.87
2019-05-30T04:40:19.683Z,1015.82
2019-05-30T04:42:13.653Z,1015.87
2019-05-30T04:43:13.347Z,1015.86
2019-05-30T04:45:04.834Z,1015.88
2019-05-30T04:46:04.850Z,1015.90
2019-05-30T04:47:57.767Z,1015.87
2019-05-30T04:48:57.782Z,1015.88
2019-05-30T04:50:50.693Z,1015.90
2019-05-30T04:51:50.716Z,1015.91
2019-05-30T04:53:43.627Z,1015.94
2019-05-30T04:54:43.633Z,1015.94
2019-05-30T04:56:36.547Z,1015.95
2019-05-30T04:57:36.557Z,1016.01
2019-05-30T04:59:29.514Z,1015.99
2019-05-30T05:00:29.524Z,1015.99
2019-05-30T05:02:23.276Z,1015.93
2019-05-30T05:03:43.508Z,1016.00
2019-05-30T05:05:21.950Z,1016.02
2019-05-30T05:06:15.812Z,1016.04
2019-05-30T05:08:08.304Z,1016.03
2019-05-30T05:09:08.315Z,1016.06
2019-05-30T05:11:01.409Z,1016.03
2019-05-30T05:12:01.240Z,1016.10
2019-05-30T05:13:54.677Z,1016.07
2019-05-30T05:14:54.677Z,1016.04
2019-05-30T05:16:47.605Z,1016.05
2019-05-30T05:17:47.603Z,1016.06
2019-05-30T05:19:40.523Z,1016.05
2019-05-30T05:20:40.536Z,1016.04
2019-05-30T05:22:33.457Z,1016.02
2019-05-30T05:23:33.463Z,1016.04
2019-05-30T05:25:26.385Z,1016.02
2019-05-30T05:26:26.399Z,1016.03
2019-05-30T05:28:19.960Z,1016.03
2019-05-30T05:29:19.909Z,1016.00
2019-05-30T05:31:12.246Z,1016.01
2019-05-30T05:32:12.259Z,1016.01
2019-05-30T05:34:05.177Z,1016.04
2019-05-30T05:35:05.186Z,1016.03
2019-05-30T05:36:58.102Z,1016.02
2019-05-30T05:37:58.116Z,1016.03
2019-05-30T05:39:51.032Z,1016.01
2019-05-30T05:40:51.043Z,1016.00
2019-05-30T05:42:43.964Z,1015.98
2019-05-30T05:43:43.975Z,1016.00
2019-05-30T05:45:37.382Z,1015.97
2019-05-30T05:46:37.399Z,1015.98
2019-05-30T05:48:30.320Z,1016.02
2019-05-30T05:49:30.325Z,1016.01
2019-05-30T05:51:23.240Z,1016.03
2019-05-30T05:52:23.253Z,1016.02
2019-05-30T05:54:16.823Z,1016.02
2019-05-30T05:55:16.688Z,1016.06
2019-05-30T05:57:09.202Z,1016.05
2019-05-30T05:58:09.217Z,1016.04
2019-05-30T06:00:02.155Z,1016.08
2019-05-30T06:01:02.148Z,1016.08
2019-05-30T06:02:55.066Z,1016.10
2019-05-30T06:03:55.074Z,1016.19
2019-05-30T06:05:52.963Z,1016.18
2019-05-30T06:06:48.007Z,1016.19
2019-05-30T06:08:40.927Z,1016.23
2019-05-30T06:09:40.938Z,1016.28
2019-05-30T06:11:33.852Z,1016.28
2019-05-30T06:12:33.866Z,1016.25
2019-05-30T06:14:28.065Z,1016.30
2019-05-30T06:15:26.796Z,1016.33
2019-05-30T06:17:21.074Z,1016.28
2019-05-30T06:18:20.169Z,1016.26
2019-05-30T06:20:12.669Z,1016.28
2019-05-30T06:21:12.660Z,1016.31
2019-05-30T06:23:05.596Z,1016.26
2019-05-30T06:24:05.598Z,1016.24
2019-05-30T06:25:58.514Z,1016.21
2019-05-30T06:26:58.531Z,1016.24
2019-05-30T06:28:51.452Z,1016.24
2019-05-30T06:29:51.460Z,1016.23
2019-05-30T06:31:44.374Z,1016.24
2019-05-30T06:32:44.391Z,1016.22
2019-05-30T06:34:39.521Z,1016.23
2019-05-30T06:35:37.317Z,1016.21
2019-05-30T06:37:30.237Z,1016.20
2019-05-30T06:38:30.249Z,1016.18
2019-05-30T06:40:23.711Z,1016.15
2019-05-30T06:41:23.506Z,1016.16
2019-05-30T06:43:16.100Z,1016.20
2019-05-30T06:44:16.110Z,1016.20
2019-05-30T06:46:09.030Z,1016.23
2019-05-30T06:47:09.038Z,1016.23
2019-05-30T06:49:01.965Z,1016.25
2019-05-30T06:50:01.975Z,1016.31
2019-05-30T06:51:54.896Z,1016.32
2019-05-30T06:52:54.906Z,1016.35
2019-05-30T06:54:47.829Z,1016.31
2019-05-30T06:55:47.837Z,1016.34
2019-05-30T06:57:40.755Z,1016.35
2019-05-30T06:58:48.428Z,1016.35
2019-05-30T07:00:33.694Z,1016.38
2019-05-30T07:01:33.703Z,1016.33
2019-05-30T07:03:26.650Z,1016.36
2019-05-30T07:04:27.707Z,1016.35
2019-05-30T07:06:19.796Z,1016.37
2019-05-30T07:07:19.748Z,1016.41
2019-05-30T07:09:12.747Z,1016.40
2019-05-30T07:10:12.496Z,1016.43
2019-05-30T07:12:06.414Z,1016.43
2019-05-30T07:13:06.428Z,1016.38
2019-05-30T07:14:59.350Z,1016.41
2019-05-30T07:15:59.360Z,1016.40
2019-05-30T07:17:52.283Z,1016.42
2019-05-30T07:18:52.291Z,1016.41
2019-05-30T07:20:45.213Z,1016.40
2019-05-30T07:21:45.223Z,1016.42
2019-05-30T07:23:39.596Z,1016.45
2019-05-30T07:24:38.262Z,1016.48
2019-05-30T07:26:31.938Z,1016.47
2019-05-30T07:27:32.000Z,1016.51
2019-05-30T07:29:24.023Z,1016.55
2019-05-30T07:30:24.011Z,1016.50
2019-05-30T07:32:16.963Z,1016.56
2019-05-30T07:33:16.944Z,1016.55
2019-05-30T07:35:09.861Z,1016.58
2019-05-30T07:36:09.868Z,1016.60
2019-05-30T07:38:02.848Z,1016.60
2019-05-30T07:39:02.799Z,1016.65
2019-05-30T07:40:55.721Z,1016.58
2019-05-30T07:42:05.635Z,1016.66
2019-05-30T07:43:48.654Z,1016.62
2019-05-30T07:44:48.665Z,1016.64
2019-05-30T07:46:41.590Z,1016.65
2019-05-30T07:47:41.606Z,1016.67
2019-05-30T07:49:34.653Z,1016.65
2019-05-30T07:50:34.627Z,1016.65
2019-05-30T07:52:28.414Z,1016.71
2019-05-30T07:53:28.482Z,1016.66
2019-05-30T07:55:20.395Z,1016.72
2019-05-30T07:56:20.400Z,1016.70
2019-05-30T07:58:14.315Z,1016.71
2019-05-30T07:59:14.325Z,1016.69
2019-05-30T08:01:07.273Z,1016.72
2019-05-30T08:02:07.281Z,1016.71
2019-05-30T08:04:00.273Z,1016.71
2019-05-30T08:05:00.223Z,1016.73
2019-05-30T08:06:53.144Z,1016.74
2019-05-30T08:07:53.150Z,1016.74
2019-05-30T08:09:46.073Z,1016.74
2019-05-30T08:10:46.084Z,1016.71
2019-05-30T08:12:39.033Z,1016.75
2019-05-30T08:13:39.046Z,1016.72
2019-05-30T08:15:33.382Z,1016.68
2019-05-30T08:16:31.985Z,1016.68
2019-05-30T08:18:24.912Z,1016.66
2019-05-30T08:19:24.924Z,1016.73
2019-05-30T08:21:17.851Z,1016.72
2019-05-30T08:22:18.011Z,1016.70
2019-05-30T08:24:10.793Z,1016.66
2019-05-30T08:25:10.803Z,1016.71
2019-05-30T08:27:03.727Z,1016.72
2019-05-30T08:28:03.742Z,1016.70
2019-05-30T08:29:56.667Z,1016.68
2019-05-30T08:30:57.043Z,1016.70
2019-05-30T08:32:49.598Z,1016.71
2019-05-30T08:33:49.610Z,1016.76
2019-05-30T08:35:49.482Z,1016.77
2019-05-30T08:36:42.791Z,1016.79
2019-05-30T08:38:35.492Z,1016.76
2019-05-30T08:39:35.497Z,1016.80
2019-05-30T08:41:29.117Z,1016.78
2019-05-30T08:42:29.521Z,1016.76
2019-05-30T08:44:21.399Z,1016.74
2019-05-30T08:45:21.488Z,1016.80
2019-05-30T08:47:14.338Z,1016.75
2019-05-30T08:48:14.341Z,1016.73
2019-05-30T08:50:07.290Z,1016.71
2019-05-30T08:51:07.303Z,1016.73
2019-05-30T08:53:01.203Z,1016.68
2019-05-30T08:54:00.240Z,1016.72
2019-05-30T08:55:53.166Z,1016.70
2019-05-30T08:56:53.180Z,1016.63
2019-05-30T08:58:46.099Z,1016.64
2019-05-30T08:59:46.141Z,1016.62
2019-05-30T09:01:40.470Z,1016.63
2019-05-30T09:02:39.062Z,1016.63
2019-05-30T09:04:32.107Z,1016.61
2019-05-30T09:05:32.065Z,1016.67
2019-05-30T09:07:24.989Z,1016.63
2019-05-30T09:08:25.003Z,1016.62
2019-05-30T09:10:17.932Z,1016.66
2019-05-30T09:11:17.948Z,1016.64
2019-05-30T09:13:10.872Z,1016.64
2019-05-30T09:14:10.883Z,1016.65
2019-05-30T09:16:03.812Z,1016.59
2019-05-30T09:17:03.822Z,1016.59
2019-05-30T09:18:56.819Z,1016.58
2019-05-30T09:19:56.764Z,1016.56
2019-05-30T09:21:49.703Z,1016.52
2019-05-30T09:22:49.719Z,1016.50
2019-05-30T09:24:43.851Z,1016.51
2019-05-30T09:25:43.898Z,1016.54
2019-05-30T09:27:35.572Z,1016.52
2019-05-30T09:28:35.627Z,1016.50
2019-05-30T09:30:28.527Z,1016.55
2019-05-30T09:31:28.540Z,1016.56
2019-05-30T09:33:21.465Z,1016.54
2019-05-30T09:34:21.478Z,1016.64
2019-05-30T09:36:14.415Z,1016.62
2019-05-30T09:37:14.430Z,1016.64
2019-05-30T09:39:07.350Z,1016.59
2019-05-30T09:40:07.366Z,1016.60
2019-05-30T09:42:01.293Z,1016.61
2019-05-30T09:43:01.306Z,1016.61
2019-05-30T09:44:54.239Z,1016.69
2019-05-30T09:45:54.247Z,1016.58
2019-05-30T09:47:48.852Z,1016.65
2019-05-30T09:48:47.197Z,1016.65
2019-05-30T09:50:42.027Z,1016.65
2019-05-30T09:51:40.560Z,1016.67
2019-05-30T09:53:33.047Z,1016.73
2019-05-30T09:54:33.063Z,1016.76
2019-05-30T09:56:25.989Z,1016.78
2019-05-30T09:57:26.018Z,1016.80
2019-05-30T09:59:18.924Z,1016.82
2019-05-30T10:00:18.945Z,1016.82
2019-05-30T10:02:11.868Z,1016.84
2019-05-30T10:03:11.884Z,1016.83
2019-05-30T10:05:04.815Z,1016.80
2019-05-30T10:06:04.822Z,1016.89
2019-05-30T10:07:57.749Z,1016.89
2019-05-30T10:08:57.765Z,1016.90
2019-05-30T10:10:51.360Z,1016.90
2019-05-30T10:11:51.375Z,1016.85
2019-05-30T10:13:44.000Z,1016.90
2019-05-30T10:14:45.121Z,1016.89
2019-05-30T10:16:36.589Z,1016.93
2019-05-30T10:17:36.597Z,1016.90
2019-05-30T10:19:29.533Z,1016.88
2019-05-30T10:20:29.534Z,1016.93
2019-05-30T10:22:22.465Z,1016.92
2019-05-30T10:23:22.479Z,1016.97
2019-05-30T10:25:15.405Z,1016.91
2019-05-30T10:26:15.418Z,1016.85
2019-05-30T10:28:09.349Z,1016.91
2019-05-30T10:29:09.366Z,1016.85
2019-05-30T10:31:02.308Z,1016.86
2019-05-30T10:32:02.304Z,1016.86
2019-05-30T10:33:55.240Z,1016.90
2019-05-30T10:34:56.125Z,1016.88
2019-05-30T10:36:49.203Z,1016.90
2019-05-30T10:37:49.117Z,1016.88
2019-05-30T10:39:41.135Z,1016.83
2019-05-30T10:40:41.128Z,1016.90
2019-05-30T10:42:34.545Z,1016.90
2019-05-30T10:43:34.561Z,1016.90
2019-05-30T10:45:27.539Z,1016.92
2019-05-30T10:46:27.504Z,1016.96
2019-05-30T10:48:21.091Z,1016.98
2019-05-30T10:49:33.616Z,1016.97
2019-05-30T10:51:13.371Z,1017.02
2019-05-30T10:52:13.386Z,1017.03
2019-05-30T10:54:06.324Z,1016.99
2019-05-30T10:55:06.326Z,1017.02
2019-05-30T10:56:59.747Z,1017.04
2019-05-30T10:57:59.864Z,1017.04
2019-05-30T10:59:52.691Z,1017.01
2019-05-30T11:00:53.873Z,1017.06
2019-05-30T11:02:47.114Z,1017.04
2019-05-30T11:03:46.027Z,1017.07
2019-05-30T11:05:38.582Z,1017.12
2019-05-30T11:06:38.583Z,1017.08
2019-05-30T11:08:31.505Z,1017.09
2019-05-30T11:09:31.524Z,1017.07
2019-05-30T11:11:24.523Z,1017.05
2019-05-30T11:12:24.459Z,1017.02
2019-05-30T11:14:17.875Z,1017.04
2019-05-30T11:15:17.934Z,1017.05
2019-05-30T11:17:10.899Z,1017.09
2019-05-30T11:18:10.839Z,1017.12
2019-05-30T11:20:03.755Z,1017.07
2019-05-30T11:21:03.773Z,1017.11
2019-05-30T11:22:56.722Z,1017.08
2019-05-30T11:23:56.844Z,1017.10
2019-05-30T11:25:50.500Z,1017.12
2019-05-30T11:26:50.954Z,1017.15
2019-05-30T11:28:42.580Z,1017.15
2019-05-30T11:29:42.587Z,1017.16
2019-05-30T11:31:36.004Z,1017.16
2019-05-30T11:32:36.021Z,1017.18
2019-05-30T11:34:28.957Z,1017.19
2019-05-30T11:35:28.961Z,1017.14
2019-05-30T11:37:21.892Z,1017.13
2019-05-30T11:38:21.984Z,1017.14
2019-05-30T11:40:14.839Z,1017.16
2019-05-30T11:41:14.844Z,1017.17
2019-05-30T11:43:07.776Z,1017.15
2019-05-30T11:44:07.783Z,1017.19
2019-05-30T11:46:00.706Z,1017.22
2019-05-30T11:47:00.746Z,1017.20
2019-05-30T11:48:54.132Z,1017.24
2019-05-30T11:49:54.147Z,1017.25
2019-05-30T11:51:47.075Z,1017.24
2019-05-30T11:52:47.094Z,1017.26
2019-05-30T11:54:40.008Z,1017.30
2019-05-30T11:55:40.027Z,1017.28
2019-05-30T11:57:32.968Z,1017.28
2019-05-30T11:58:32.974Z,1017.29
2019-05-30T12:00:25.895Z,1017.30
2019-05-30T12:01:25.982Z,1017.31
2019-05-30T12:03:18.837Z,1017.33
2019-05-30T12:04:18.848Z,1017.31
2019-05-30T12:06:11.775Z,1017.38
2019-05-30T12:07:11.787Z,1017.30
2019-05-30T12:09:04.716Z,1017.39
2019-05-30T12:10:04.790Z,1017.37
2019-05-30T12:11:59.212Z,1017.40
2019-05-30T12:12:59.336Z,1017.41
2019-05-30T12:14:51.285Z,1017.41
2019-05-30T12:15:51.381Z,1017.46
2019-05-30T12:17:44.016Z,1017.47
2019-05-30T12:18:44.026Z,1017.44
2019-05-30T12:20:36.949Z,1017.46
2019-05-30T12:21:36.968Z,1017.41
2019-05-30T12:23:29.899Z,1017.45
2019-05-30T12:24:29.924Z,1017.38
2019-05-30T12:26:22.836Z,1017.44
2019-05-30T12:27:22.854Z,1017.39
2019-05-30T12:29:15.772Z,1017.47
2019-05-30T12:30:15.786Z,1017.46
2019-05-30T12:32:08.709Z,1017.45
2019-05-30T12:33:08.720Z,1017.49
2019-05-30T12:35:02.845Z,1017.48
2019-05-30T12:36:02.669Z,1017.45
2019-05-30T12:37:59.105Z,1017.43
2019-05-30T12:38:54.595Z,1017.52
2019-05-30T12:40:47.526Z,1017.50
2019-05-30T12:41:47.533Z,1017.53
2019-05-30T12:43:40.493Z,1017.57
2019-05-30T12:44:40.510Z,1017.53
2019-05-30T12:46:33.493Z,1017.55
2019-05-30T12:47:33.451Z,1017.55
2019-05-30T12:49:26.374Z,1017.54
2019-05-30T12:50:26.389Z,1017.52
2019-05-30T12:52:19.314Z,1017.53
2019-05-30T12:53:19.328Z,1017.52
2019-05-30T12:55:12.249Z,1017.54
2019-05-30T12:56:12.265Z,1017.57
2019-05-30T12:58:05.192Z,1017.59
2019-05-30T12:59:05.203Z,1017.56
2019-05-30T13:00:58.759Z,1017.56
2019-05-30T13:01:58.961Z,1017.54
2019-05-30T13:03:51.068Z,1017.56
2019-05-30T13:04:51.083Z,1017.56
2019-05-30T13:06:44.106Z,1017.57
2019-05-30T13:07:44.021Z,1017.53
2019-05-30T13:09:36.945Z,1017.55
2019-05-30T13:10:36.954Z,1017.53
2019-05-30T13:12:29.911Z,1017.50
2019-05-30T13:13:29.920Z,1017.55
2019-05-30T13:15:22.851Z,1017.56
2019-05-30T13:16:22.859Z,1017.57
2019-05-30T13:18:15.786Z,1017.55
2019-05-30T13:19:15.803Z,1017.53
2019-05-30T13:21:08.720Z,1017.59
2019-05-30T13:22:08.740Z,1017.57
2019-05-30T13:24:01.974Z,1017.58
2019-05-30T13:25:01.935Z,1017.56
2019-05-30T13:26:55.615Z,1017.62
2019-05-30T13:27:55.707Z,1017.65
2019-05-30T13:29:47.539Z,1017.70
2019-05-30T13:30:47.554Z,1017.67
2019-05-30T13:32:40.478Z,1017.67
2019-05-30T13:33:40.493Z,1017.64
2019-05-30T13:35:33.419Z,1017.63
2019-05-30T13:36:33.431Z,1017.58
2019-05-30T13:38:27.023Z,1017.60
2019-05-30T13:39:26.378Z,1017.60
2019-05-30T13:41:19.296Z,1017.59
2019-05-30T13:42:19.313Z,1017.59
2019-05-30T13:44:12.260Z,1017.62
2019-05-30T13:45:12.251Z,1017.66
2019-05-30T13:47:06.589Z,1017.61
2019-05-30T13:48:06.542Z,1017.63
2019-05-30T13:49:58.568Z,1017.66
2019-05-30T13:50:58.633Z,1017.65
2019-05-30T13:52:51.052Z,1017.66
2019-05-30T13:53:51.074Z,1017.61
2019-05-30T13:55:44.077Z,1017.66
2019-05-30T13:56:44.020Z,1017.63
2019-05-30T13:58:36.953Z,1017.62
2019-05-30T13:59:36.962Z,1017.64
2019-05-30T14:01:29.883Z,1017.66
2019-05-30T14:02:29.903Z,1017.66
2019-05-30T14:04:22.869Z,1017.62
2019-05-30T14:05:22.841Z,1017.63
2019-05-30T14:07:15.775Z,1017.65
2019-05-30T14:08:16.735Z,1017.61
2019-05-30T14:10:08.832Z,1017.65
2019-05-30T14:11:08.750Z,1017.63
2019-05-30T14:13:02.501Z,1017.64
2019-05-30T14:14:02.746Z,1017.65
2019-05-30T14:15:54.591Z,1017.68
2019-05-30T14:16:54.608Z,1017.70
2019-05-30T14:18:47.537Z,1017.65
2019-05-30T14:19:47.547Z,1017.62
2019-05-30T14:21:41.013Z,1017.61
2019-05-30T14:22:40.492Z,1017.65
2019-05-30T14:24:33.415Z,1017.62
2019-05-30T14:25:33.446Z,1017.63
2019-05-30T14:27:26.355Z,1017.58
2019-05-30T14:28:26.368Z,1017.60
2019-05-30T14:30:19.294Z,1017.64
2019-05-30T14:31:19.361Z,1017.65
2019-05-30T14:33:12.397Z,1017.64
2019-05-30T14:34:12.320Z,1017.62
2019-05-30T14:36:10.164Z,1017.63
2019-05-30T14:37:06.317Z,1017.64
2019-05-30T14:38:59.095Z,1017.66
2019-05-30T14:39:58.124Z,1017.66
2019-05-30T14:41:51.064Z,1017.68
2019-05-30T14:42:51.072Z,1017.70
2019-05-30T14:44:44.120Z,1017.64
2019-05-30T14:45:44.006Z,1017.67
2019-05-30T14:47:36.931Z,1017.67
2019-05-30T14:48:36.940Z,1017.65
2019-05-30T14:50:29.862Z,1017.63
2019-05-30T14:51:29.933Z,1017.64
2019-05-30T14:53:22.807Z,1017.65
2019-05-30T14:54:22.819Z,1017.61
2019-05-30T14:56:15.739Z,1017.64
2019-05-30T14:57:15.804Z,1017.69
2019-05-30T14:59:08.965Z,1017.66
2019-05-30T15:00:09.360Z,1017.65
2019-05-30T15:02:01.657Z,1017.66
2019-05-30T15:03:01.654Z,1017.66
2019-05-30T15:04:54.668Z,1017.63
2019-05-30T15:05:54.658Z,1017.66
2019-05-30T15:07:47.593Z,1017.66
2019-05-30T15:08:47.599Z,1017.64
2019-05-30T15:10:40.525Z,1017.63
2019-05-30T15:11:40.537Z,1017.58
2019-05-30T15:13:33.465Z,1017.62
2019-05-30T15:14:33.480Z,1017.64
2019-05-30T15:16:26.407Z,1017.67
2019-05-30T15:17:26.417Z,1017.68
2019-05-30T15:19:19.839Z,1017.71
2019-05-30T15:20:19.850Z,1017.69
2019-05-30T15:22:15.379Z,1017.67
2019-05-30T15:23:13.819Z,1017.70
2019-05-30T15:25:05.832Z,1017.67
2019-05-30T15:26:06.018Z,1017.64
2019-05-30T15:27:58.657Z,1017.59
2019-05-30T15:28:58.666Z,1017.64
2019-05-30T15:30:52.090Z,1017.58
2019-05-30T15:31:52.098Z,1017.62
2019-05-30T15:33:45.044Z,1017.64
2019-05-30T15:34:45.051Z,1017.67
2019-05-30T15:36:37.986Z,1017.76
2019-05-30T15:37:40.780Z,1017.77
2019-05-30T15:39:33.010Z,1017.77
2019-05-30T15:40:30.923Z,1017.77
2019-05-30T15:42:23.861Z,1017.74
2019-05-30T15:43:23.863Z,1017.73
2019-05-30T15:45:17.990Z,1017.73
2019-05-30T15:46:17.987Z,1017.72
2019-05-30T15:48:10.316Z,1017.74
2019-05-30T15:49:10.212Z,1017.72
2019-05-30T15:51:02.676Z,1017.68
2019-05-30T15:52:02.683Z,1017.70
2019-05-30T15:53:55.608Z,1017.68
2019-05-30T15:54:55.621Z,1017.71
2019-05-30T15:56:48.541Z,1017.73
2019-05-30T15:57:48.566Z,1017.70
2019-05-30T15:59:41.493Z,1017.72
2019-05-30T16:00:41.493Z,1017.68
2019-05-30T16:02:34.427Z,1017.66
2019-05-30T16:03:34.435Z,1017.66
2019-05-30T16:05:27.358Z,1017.61
2019-05-30T16:06:27.376Z,1017.58
2019-05-30T16:08:20.934Z,1017.56
2019-05-30T16:09:20.928Z,1017.61
2019-05-30T16:11:13.244Z,1017.62
2019-05-30T16:12:13.258Z,1017.63
2019-05-30T16:14:06.187Z,1017.61
2019-05-30T16:15:06.194Z,1017.62
2019-05-30T16:16:59.119Z,1017.60
2019-05-30T16:17:59.126Z,1017.61
2019-05-30T16:19:52.053Z,1017.61
2019-05-30T16:20:52.066Z,1017.62
2019-05-30T16:22:44.989Z,1017.60
2019-05-30T16:23:45.064Z,1017.57
2019-05-30T16:25:37.927Z,1017.54
2019-05-30T16:26:37.943Z,1017.51
2019-05-30T16:28:30.885Z,1017.53
2019-05-30T16:29:30.970Z,1017.53
2019-05-30T16:31:23.831Z,1017.52
2019-05-30T16:32:23.839Z,1017.52
2019-05-30T16:34:17.969Z,1017.51
2019-05-30T16:35:18.055Z,1017.51
2019-05-30T16:37:09.701Z,1017.51
2019-05-30T16:38:09.716Z,1017.55
2019-05-30T16:40:06.419Z,1017.57
2019-05-30T16:41:02.706Z,1017.61
2019-05-30T16:42:55.581Z,1017.61
2019-05-30T16:43:55.593Z,1017.56
2019-05-30T16:45:48.525Z,1017.55
2019-05-30T16:46:48.543Z,1017.58
2019-05-30T16:48:41.459Z,1017.49
2019-05-30T16:49:41.469Z,1017.50
2019-05-30T16:51:34.393Z,1017.48
2019-05-30T16:52:34.409Z,1017.48
2019-05-30T16:54:27.577Z,1017.48
2019-05-30T16:55:27.621Z,1017.42
2019-05-30T16:57:20.737Z,1017.40
2019-05-30T16:58:21.606Z,1017.42
2019-05-30T17:00:13.213Z,1017.39
2019-05-30T17:01:13.226Z,1017.38
2019-05-30T17:03:06.723Z,1017.33
2019-05-30T17:04:06.170Z,1017.36
2019-05-30T17:06:00.083Z,1017.36
2019-05-30T17:07:00.103Z,1017.33
2019-05-30T17:08:53.029Z,1017.36
2019-05-30T17:09:53.041Z,1017.37
2019-05-30T17:11:45.964Z,1017.44
2019-05-30T17:12:45.987Z,1017.45
2019-05-30T17:14:38.922Z,1017.40
2019-05-30T17:15:38.916Z,1017.43
2019-05-30T17:17:31.844Z,1017.40
2019-05-30T17:18:31.962Z,1017.39
2019-05-30T17:20:24.795Z,1017.37
2019-05-30T17:21:24.806Z,1017.39
2019-05-30T17:23:18.681Z,1017.36
2019-05-30T17:24:18.782Z,1017.37
2019-05-30T17:26:10.700Z,1017.34